Time;durP1;ratioP1;P1;durP2;ratioP2;P2;SDS_P1;SDS_P2;PMS_P1;PMS_P2;Temp;Humidity;BMP_temperature;BMP_pressure;BME280_temperature;BME280_humidity;BME280_pressure;Samples;Min_cycle;Max_cycle;Signal;HPM_P1;HPM_P2
2023/02/23 00:01:52;;;;;;;;;57.33;45.67;;;;;;;;5047560;28;11552;-75
2023/02/23 00:04:17;;;;;;;;;57.25;41.00;;;;;;;;5032330;28;8796;-75
2023/02/23 00:06:43;;;;;;;;;56.00;42.33;;;;;;;;5032325;28;8823;-76
2023/02/23 00:09:21;;;;;;;;;48.75;40.50;;;;;;;;5032239;28;8823;-75
2023/02/23 00:11:47;;;;;;;;;42.00;37.00;;;;;;;;5032175;28;8784;-75
2023/02/23 00:14:13;;;;;;;;;38.50;36.50;;;;;;;;5047486;28;11586;-75
2023/02/23 00:16:38;;;;;;;;;43.00;37.50;;;;;;;;5032007;28;8832;-75
2023/02/23 00:19:06;;;;;;;;;40.00;37.75;;;;;;;;5032107;28;8922;-75
2023/02/23 00:21:33;;;;;;;;;43.00;36.50;;;;;;;;5031633;28;8811;-75
2023/02/23 00:24:00;;;;;;;;;38.50;35.50;;;;;;;;5032265;28;11665;-75
2023/02/23 00:26:29;;;;;;;;;36.00;34.75;;;;;;;;5031650;28;11714;-75
2023/02/23 00:28:55;;;;;;;;;40.00;35.00;;;;;;;;5031650;28;11772;-75
2023/02/23 00:31:24;;;;;;;;;42.25;36.75;;;;;;;;5031669;28;11632;-75
2023/02/23 00:33:52;;;;;;;;;41.25;33.00;;;;;;;;5031700;28;8788;-75
2023/02/23 00:36:17;;;;;;;;;38.00;34.00;;;;;;;;5031584;28;11695;-75
2023/02/23 00:38:44;;;;;;;;;34.25;26.00;;;;;;;;5031617;28;11541;-75
2023/02/23 00:41:19;;;;;;;;;40.00;32.75;;;;;;;;5030236;28;8819;-75
2023/02/23 00:43:47;;;;;;;;;36.50;33.00;;;;;;;;5031444;28;11563;-75
2023/02/23 00:46:16;;;;;;;;;42.25;35.25;;;;;;;;5031376;28;11659;-75
2023/02/23 00:48:41;;;;;;;;;41.00;38.25;;;;;;;;5031427;28;11656;-75
2023/02/23 00:51:07;;;;;;;;;35.75;31.75;;;;;;;;5031340;28;11693;-75
2023/02/23 00:53:32;;;;;;;;;41.00;32.00;;;;;;;;5031128;28;8814;-75
2023/02/23 00:55:57;;;;;;;;;35.50;33.50;;;;;;;;5031134;28;8792;-75
2023/02/23 00:58:23;;;;;;;;;39.50;34.75;;;;;;;;5031018;28;8831;-75
2023/02/23 01:00:49;;;;;;;;;31.25;29.75;;;;;;;;5031172;28;8792;-75
2023/02/23 01:03:14;;;;;;;;;39.00;33.75;;;;;;;;5031067;28;12296;-71
2023/02/23 01:05:39;;;;;;;;;38.50;32.25;;;;;;;;5031091;28;8871;-72
2023/02/23 01:08:08;;;;;;;;;36.67;33.33;;;;;;;;5030891;28;8848;-73
2023/02/23 01:10:38;;;;;;;;;35.50;34.50;;;;;;;;5031057;28;8818;-73
2023/02/23 01:13:04;;;;;;;;;45.00;34.00;;;;;;;;5029484;28;11594;-73
2023/02/23 01:15:31;;;;;;;;;37.25;34.75;;;;;;;;5030989;28;11543;-72
2023/02/23 01:17:56;;;;;;;;;39.50;34.00;;;;;;;;5029476;28;11573;-73
2023/02/23 01:20:22;;;;;;;;;40.67;35.33;;;;;;;;5029299;28;11530;-72
2023/02/23 01:22:48;;;;;;;;;45.00;39.67;;;;;;;;5030590;28;8796;-72
2023/02/23 01:25:15;;;;;;;;;36.33;34.00;;;;;;;;5030742;28;8819;-72
2023/02/23 01:27:44;;;;;;;;;42.00;40.00;;;;;;;;5030173;28;11552;-72
2023/02/23 01:30:13;;;;;;;;;46.33;37.00;;;;;;;;5029382;28;11547;-72
2023/02/23 01:32:39;;;;;;;;;42.33;38.33;;;;;;;;5030571;28;11665;-73
2023/02/23 01:35:05;;;;;;;;;42.67;38.00;;;;;;;;5030576;28;11559;-73
2023/02/23 01:37:34;;;;;;;;;50.00;42.67;;;;;;;;5030642;28;9554;-72
2023/02/23 01:39:59;;;;;;;;;47.33;41.00;;;;;;;;5030694;28;8796;-72
2023/02/23 01:42:25;;;;;;;;;50.33;41.67;;;;;;;;5030632;28;8834;-72
2023/02/23 01:45:13;;;;;;;;;52.67;43.33;;;;;;;;5030588;28;8802;-73
2023/02/23 01:47:38;;;;;;;;;49.00;43.00;;;;;;;;5024691;28;8842;-72
2023/02/23 01:50:03;;;;;;;;;48.67;42.00;;;;;;;;5030724;28;8788;-72
2023/02/23 01:52:32;;;;;;;;;60.33;43.67;;;;;;;;5030070;28;8792;-72
2023/02/23 01:54:58;;;;;;;;;59.33;46.33;;;;;;;;5030433;28;8823;-72
2023/02/23 01:57:26;;;;;;;;;56.67;41.33;;;;;;;;5030233;28;8852;-72
2023/02/23 01:59:52;;;;;;;;;56.33;44.33;;;;;;;;5030485;28;8803;-73
2023/02/23 02:02:20;;;;;;;;;53.67;46.00;;;;;;;;5030430;28;8807;-73
2023/02/23 02:04:45;;;;;;;;;53.33;44.67;;;;;;;;5030603;28;8800;-73
2023/02/23 02:07:33;;;;;;;;;52.00;44.00;;;;;;;;5030342;28;9666;-73
2023/02/23 02:10:53;;;;;;;;;47.00;42.33;;;;;;;;5030532;28;8804;-73
2023/02/23 02:12:53;;;;;;;;;44.33;41.67;;;;;;;;5026149;28;8823;-73
2023/02/23 02:15:24;;;;;;;;;49.33;40.00;;;;;;;;5029130;28;9545;-73
2023/02/23 02:18:02;;;;;;;;;50.00;42.67;;;;;;;;5030247;28;8982;-73
2023/02/23 02:20:41;;;;;;;;;62.00;44.33;;;;;;;;5030319;28;8803;-73
2023/02/23 02:23:16;;;;;;;;;44.33;39.67;;;;;;;;5030415;28;8792;-72
2023/02/23 02:25:47;;;;;;;;;13.33;8.33;;;;;;;;5029037;28;8897;-72
2023/02/23 02:28:25;;;;;;;;;47.33;42.00;;;;;;;;5030177;28;9620;-72
2023/02/23 02:31:12;;;;;;;;;46.67;39.00;;;;;;;;5030047;28;8773;-72
2023/02/23 02:33:44;;;;;;;;;51.67;43.00;;;;;;;;5028674;28;8808;-73
2023/02/23 02:36:27;;;;;;;;;48.33;40.00;;;;;;;;5030046;28;8776;-73
2023/02/23 02:39:00;;;;;;;;;47.33;43.67;;;;;;;;5031056;28;8792;-73
2023/02/23 02:41:41;;;;;;;;;54.00;43.67;;;;;;;;5033899;28;8784;-73
2023/02/23 02:44:12;;;;;;;;;46.00;41.33;;;;;;;;5033730;28;8796;-73
2023/02/23 02:46:42;;;;;;;;;37.67;36.67;;;;;;;;5033724;28;8803;-73
2023/02/23 02:49:10;;;;;;;;;52.00;43.67;;;;;;;;5033760;28;8780;-73
2023/02/23 02:51:43;;;;;;;;;52.33;43.00;;;;;;;;5033786;28;8792;-73
2023/02/23 02:54:27;;;;;;;;;52.33;44.67;;;;;;;;5033833;28;8808;-72
2023/02/23 15:51:47;;;;;;;;;13.75;12.75;;;;;;;;5103259;27;13398;-67
2023/02/23 15:54:32;;;;;;;;;10.00;10.00;;;;;;;;5106789;28;11517;-68
2023/02/23 15:57:03;;;;;;;;;9.50;8.00;;;;;;;;5108452;27;11506;-68
2023/02/23 15:59:29;;;;;;;;;10.50;9.50;;;;;;;;5108051;28;11407;-68
2023/02/23 16:01:57;;;;;;;;;14.50;11.25;;;;;;;;5106384;28;11462;-68
2023/02/23 16:04:27;;;;;;;;;9.00;7.00;;;;;;;;5106659;28;11509;-68
2023/02/23 16:06:55;;;;;;;;;13.50;13.00;;;;;;;;5106663;28;11431;-68
2023/02/23 16:09:20;;;;;;;;;13.00;13.00;;;;;;;;5119278;27;11418;-68
2023/02/23 16:11:54;;;;;;;;;11.50;9.75;;;;;;;;5126796;27;11571;-68
2023/02/23 16:14:21;;;;;;;;;11.00;9.25;;;;;;;;5126648;27;9549;-67
2023/02/23 16:16:49;;;;;;;;;16.25;12.00;;;;;;;;5125371;27;11384;-68
2023/02/23 16:19:15;;;;;;;;;13.25;10.75;;;;;;;;5121647;27;11513;-68
2023/02/23 16:21:40;;;;;;;;;13.25;12.50;;;;;;;;5126604;27;12190;-68
2023/02/23 16:24:12;;;;;;;;;6.00;6.00;;;;;;;;5126965;27;11540;-67
2023/02/23 16:26:43;;;;;;;;;11.00;10.50;;;;;;;;5126705;27;8816;-67
2023/02/23 16:29:12;;;;;;;;;11.75;10.25;;;;;;;;5120263;27;12244;-66
2023/02/23 16:31:42;;;;;;;;;9.25;9.00;;;;;;;;5126732;27;11420;-67
2023/02/23 16:34:18;;;;;;;;;13.00;9.50;;;;;;;;5126340;27;11421;-67
2023/02/23 16:36:47;;;;;;;;;4.75;4.75;;;;;;;;5126763;27;11462;-66
2023/02/23 16:39:16;;;;;;;;;6.00;5.00;;;;;;;;5119822;27;11419;-65
2023/02/23 16:41:41;;;;;;;;;16.25;13.00;;;;;;;;5125981;27;11348;-68
2023/02/23 16:44:11;;;;;;;;;12.25;10.25;;;;;;;;5125579;27;11517;-67
2023/02/23 16:47:08;;;;;;;;;12.75;12.75;;;;;;;;5126114;27;9663;-66
2023/02/23 16:49:34;;;;;;;;;11.50;10.50;;;;;;;;5107264;28;11458;-65
2023/02/23 16:51:59;;;;;;;;;14.50;11.75;;;;;;;;5105650;28;12315;-66
2023/02/23 16:54:25;;;;;;;;;14.00;12.25;;;;;;;;5105943;28;8791;-67
2023/02/23 16:56:54;;;;;;;;;12.25;12.00;;;;;;;;5106729;27;8788;-62
2023/02/23 16:59:20;;;;;;;;;12.00;10.50;;;;;;;;5103246;27;9824;-62
2023/02/23 17:01:46;;;;;;;;;11.00;9.00;;;;;;;;5077051;28;11524;-62
2023/02/23 17:04:14;;;;;;;;;12.50;12.00;;;;;;;;5044509;28;11518;-62
2023/02/23 17:06:40;;;;;;;;;18.00;9.75;;;;;;;;5031069;28;8820;-63
2023/02/23 17:09:05;;;;;;;;;12.00;10.00;;;;;;;;5031709;28;12229;-60
2023/02/23 17:11:31;;;;;;;;;13.00;11.50;;;;;;;;5030802;28;11529;-61
2023/02/23 17:13:56;;;;;;;;;18.50;17.00;;;;;;;;5031098;28;8818;-60
2023/02/23 17:16:21;;;;;;;;;16.50;14.25;;;;;;;;5031325;28;9563;-61
2023/02/23 17:18:47;;;;;;;;;14.00;14.00;;;;;;;;5031308;28;8832;-68
2023/02/23 17:21:22;;;;;;;;;19.25;17.50;;;;;;;;5028246;28;8864;-68
2023/02/23 17:23:49;;;;;;;;;16.50;15.50;;;;;;;;5030014;28;11623;-68
2023/02/23 17:26:16;;;;;;;;;16.25;13.25;;;;;;;;5030893;28;12243;-70
2023/02/23 17:28:41;;;;;;;;;19.00;14.00;;;;;;;;5031083;28;11625;-73
2023/02/23 17:31:07;;;;;;;;;14.25;11.00;;;;;;;;5030465;28;11508;-70
2023/02/23 17:33:35;;;;;;;;;16.00;13.00;;;;;;;;5023818;28;9610;-70
2023/02/23 17:36:00;;;;;;;;;20.50;14.50;;;;;;;;5030637;28;8790;-67
2023/02/23 17:38:33;;;;;;;;;16.50;14.50;;;;;;;;5029332;28;11575;-69
2023/02/23 17:41:08;;;;;;;;;19.25;15.25;;;;;;;;5028782;28;8813;-71
2023/02/23 17:43:34;;;;;;;;;25.25;23.00;;;;;;;;5027745;28;11666;-70
2023/02/23 17:46:00;;;;;;;;;18.75;18.00;;;;;;;;5030143;28;11516;-70
2023/02/23 17:48:25;;;;;;;;;21.25;16.75;;;;;;;;5029071;28;9671;-69
2023/02/23 17:50:59;;;;;;;;;18.00;18.00;;;;;;;;5025494;28;8845;-67
2023/02/23 17:53:25;;;;;;;;;22.75;17.75;;;;;;;;5027634;28;9570;-70
2023/02/23 17:55:51;;;;;;;;;22.50;21.50;;;;;;;;5021705;28;11561;-68
2023/02/23 17:58:16;;;;;;;;;20.25;18.50;;;;;;;;5027280;28;8916;-69
2023/02/23 18:00:41;;;;;;;;;21.75;20.00;;;;;;;;5030275;28;8871;-70
2023/02/23 18:03:07;;;;;;;;;24.00;19.00;;;;;;;;5030636;28;9643;-70
2023/02/23 18:05:32;;;;;;;;;20.00;18.00;;;;;;;;5034489;28;8849;-71
2023/02/23 18:07:57;;;;;;;;;27.50;20.25;;;;;;;;5033469;28;8821;-69
2023/02/23 18:10:24;;;;;;;;;12.50;10.25;;;;;;;;5030240;28;8829;-69
2023/02/23 18:12:49;;;;;;;;;28.75;26.25;;;;;;;;5028279;28;8802;-70
2023/02/23 18:15:16;;;;;;;;;27.50;27.00;;;;;;;;5027162;28;11542;-71
2023/02/23 18:17:41;;;;;;;;;17.75;15.50;;;;;;;;5026057;28;9620;-69
2023/02/23 18:20:07;;;;;;;;;27.00;26.50;;;;;;;;5029288;28;11546;-69
2023/02/23 18:22:33;;;;;;;;;28.50;25.25;;;;;;;;5028751;28;8832;-69
2023/02/23 18:24:58;;;;;;;;;26.50;26.00;;;;;;;;5017342;28;8782;-69
2023/02/23 18:27:24;;;;;;;;;29.00;26.75;;;;;;;;5028711;28;9647;-69
2023/02/23 18:29:49;;;;;;;;;18.75;11.75;;;;;;;;5028699;28;8806;-70
2023/02/23 18:32:14;;;;;;;;;0.00;0.00;;;;;;;;5030299;28;8773;-68
2023/02/23 18:34:39;;;;;;;;;29.25;24.25;;;;;;;;5030038;28;9532;-67
2023/02/23 18:37:08;;;;;;;;;32.75;30.75;;;;;;;;5028260;28;8944;-68
2023/02/23 18:39:33;;;;;;;;;29.75;26.50;;;;;;;;5029884;28;8838;-69
2023/02/23 18:41:59;;;;;;;;;41.00;31.25;;;;;;;;5030292;28;11536;-72
2023/02/23 18:44:24;;;;;;;;;33.00;27.50;;;;;;;;5029693;28;8793;-69
2023/02/23 18:46:50;;;;;;;;;34.25;27.75;;;;;;;;5028355;28;8810;-68
2023/02/23 18:49:17;;;;;;;;;28.50;27.00;;;;;;;;5029344;28;8887;-68
2023/02/23 18:51:42;;;;;;;;;26.00;26.00;;;;;;;;5029489;28;9562;-72
2023/02/23 18:54:15;;;;;;;;;34.75;26.25;;;;;;;;5028458;28;11581;-71
2023/02/23 18:56:41;;;;;;;;;18.50;18.50;;;;;;;;5022622;28;8811;-70
2023/02/23 18:59:06;;;;;;;;;33.75;28.00;;;;;;;;5049259;28;11572;-74
2023/02/23 19:01:32;;;;;;;;;29.25;24.00;;;;;;;;5049487;28;8811;-71
2023/02/23 19:03:58;;;;;;;;;38.00;33.00;;;;;;;;5049448;28;8779;-68
2023/02/23 19:06:24;;;;;;;;;32.50;27.50;;;;;;;;5045909;28;11508;-70
2023/02/23 19:08:54;;;;;;;;;40.75;36.75;;;;;;;;5009684;28;9636;-67
2023/02/23 19:11:24;;;;;;;;;42.75;36.00;;;;;;;;5009558;28;8836;-69
2023/02/23 19:13:53;;;;;;;;;40.00;37.75;;;;;;;;4982077;28;11555;-70
2023/02/23 19:16:19;;;;;;;;;46.00;37.50;;;;;;;;5019784;28;11546;-70
2023/02/23 19:18:45;;;;;;;;;42.50;36.50;;;;;;;;5029073;28;11552;-70
2023/02/23 19:21:11;;;;;;;;;39.75;35.00;;;;;;;;5028801;28;8847;-70
2023/02/23 19:23:36;;;;;;;;;51.25;40.50;;;;;;;;5020838;28;11559;-72
2023/02/23 19:26:02;;;;;;;;;55.50;45.25;;;;;;;;5021898;28;8832;-76
2023/02/23 19:28:27;;;;;;;;;47.75;43.00;;;;;;;;5027068;28;8846;-73
2023/02/23 19:31:19;;;;;;;;;45.50;41.25;;;;;;;;5029144;28;9562;-75
2023/02/23 19:33:45;;;;;;;;;48.25;43.25;;;;;;;;5028648;28;8842;-75
2023/02/23 19:36:12;;;;;;;;;44.50;41.25;;;;;;;;5028819;28;11553;-73
2023/02/23 19:38:38;;;;;;;;;47.00;39.75;;;;;;;;5027416;28;8816;-74
2023/02/23 19:41:06;;;;;;;;;50.50;41.00;;;;;;;;5028700;28;11584;-76
2023/02/23 19:43:32;;;;;;;;;37.75;36.25;;;;;;;;5028869;28;8808;-76
2023/02/23 19:46:04;;;;;;;;;45.00;40.75;;;;;;;;5027474;28;11641;-74
2023/02/23 19:48:29;;;;;;;;;46.75;41.50;;;;;;;;5027267;28;8843;-73
2023/02/23 19:50:54;;;;;;;;;45.00;39.50;;;;;;;;5027076;28;11672;-73
2023/02/23 19:53:20;;;;;;;;;47.25;38.50;;;;;;;;5027805;28;8850;-74
2023/02/23 19:55:45;;;;;;;;;42.50;38.25;;;;;;;;5006643;28;9615;-73
2023/02/23 19:58:11;;;;;;;;;43.75;37.75;;;;;;;;5005948;28;8802;-77
2023/02/23 20:00:36;;;;;;;;;39.50;37.00;;;;;;;;5006888;28;8834;-73
2023/02/23 20:03:05;;;;;;;;;39.25;33.50;;;;;;;;5008361;28;8835;-75
2023/02/23 20:05:31;;;;;;;;;39.75;36.00;;;;;;;;5007691;28;8821;-74
2023/02/23 20:07:56;;;;;;;;;50.75;39.50;;;;;;;;5008107;28;11579;-72
2023/02/23 20:10:24;;;;;;;;;49.75;41.00;;;;;;;;5008425;28;11573;-75
2023/02/23 20:12:50;;;;;;;;;43.50;38.75;;;;;;;;5009035;28;8802;-72
2023/02/23 20:15:15;;;;;;;;;39.25;36.00;;;;;;;;5007398;28;11665;-74
2023/02/23 20:17:40;;;;;;;;;38.50;36.75;;;;;;;;5008842;28;8906;-74
2023/02/23 20:20:09;;;;;;;;;42.75;39.50;;;;;;;;5008489;28;8939;-74
2023/02/23 20:22:35;;;;;;;;;35.75;34.25;;;;;;;;5008521;28;8806;-73
2023/02/23 20:25:01;;;;;;;;;44.00;37.50;;;;;;;;5006919;28;11798;-74
2023/02/23 20:27:28;;;;;;;;;39.25;34.25;;;;;;;;5008674;28;11579;-75
2023/02/23 20:29:55;;;;;;;;;49.00;38.00;;;;;;;;5008610;28;9576;-74
2023/02/23 20:32:20;;;;;;;;;43.25;37.25;;;;;;;;5011233;28;11548;-77
2023/02/23 20:34:47;;;;;;;;;39.50;33.75;;;;;;;;5027585;28;11604;-78
2023/02/23 20:37:12;;;;;;;;;50.75;44.00;;;;;;;;5030121;28;8942;-76
2023/02/23 20:39:38;;;;;;;;;49.75;42.00;;;;;;;;5031930;28;11710;-79
2023/02/23 20:42:03;;;;;;;;;40.50;36.50;;;;;;;;5030948;28;8834;-78
2023/02/23 20:44:30;;;;;;;;;51.50;41.50;;;;;;;;5030743;28;8808;-79
2023/02/23 20:46:55;;;;;;;;;39.00;30.25;;;;;;;;5028041;28;8803;-80
2023/02/23 20:49:21;;;;;;;;;44.25;40.75;;;;;;;;5029993;28;11567;-80
2023/02/23 20:51:47;;;;;;;;;41.25;37.25;;;;;;;;5030662;28;8812;-80
2023/02/23 20:54:13;;;;;;;;;43.75;41.25;;;;;;;;5029161;28;11735;-80
2023/02/23 20:56:39;;;;;;;;;48.25;39.00;;;;;;;;5032273;28;8808;-75
2023/02/23 20:59:05;;;;;;;;;49.50;41.25;;;;;;;;5031730;28;8799;-76
2023/02/23 21:01:31;;;;;;;;;43.00;39.00;;;;;;;;5031198;28;11575;-76
2023/02/23 21:03:59;;;;;;;;;49.75;42.00;;;;;;;;5032048;28;8803;-74
2023/02/23 21:06:25;;;;;;;;;42.50;37.00;;;;;;;;5031851;28;8792;-74
2023/02/23 21:08:54;;;;;;;;;50.75;44.00;;;;;;;;5030799;28;11590;-74
2023/02/23 21:11:21;;;;;;;;;45.50;41.00;;;;;;;;5030270;28;8970;-74
2023/02/23 21:13:46;;;;;;;;;47.00;42.50;;;;;;;;5030076;28;11549;-73
2023/02/23 21:16:13;;;;;;;;;45.25;38.75;;;;;;;;5029858;28;11554;-73
2023/02/23 21:18:39;;;;;;;;;47.00;41.50;;;;;;;;5029428;28;8816;-73
2023/02/23 21:21:09;;;;;;;;;39.00;34.75;;;;;;;;5029555;28;11600;-73
2023/02/23 21:23:35;;;;;;;;;44.50;39.75;;;;;;;;5030507;28;8832;-72
2023/02/23 21:26:08;;;;;;;;;45.25;37.25;;;;;;;;5029600;28;11622;-72
2023/02/23 21:28:34;;;;;;;;;48.00;39.75;;;;;;;;5030062;28;11617;-73
2023/02/23 21:30:59;;;;;;;;;45.25;38.50;;;;;;;;5030561;28;11569;-72
2023/02/23 21:33:27;;;;;;;;;43.50;40.00;;;;;;;;5031021;28;8794;-72
2023/02/23 21:35:57;;;;;;;;;45.75;37.75;;;;;;;;5030580;28;8823;-72
2023/02/23 21:38:22;;;;;;;;;45.00;40.75;;;;;;;;5030589;28;11562;-72
2023/02/23 21:40:48;;;;;;;;;43.25;38.25;;;;;;;;5030145;28;11574;-72
2023/02/23 21:43:13;;;;;;;;;42.25;38.50;;;;;;;;5031064;28;8790;-71
2023/02/23 21:45:39;;;;;;;;;41.25;33.25;;;;;;;;5030825;28;8785;-71
2023/02/23 21:48:04;;;;;;;;;40.00;34.25;;;;;;;;5030687;28;8817;-72
2023/02/23 21:50:29;;;;;;;;;38.25;35.00;;;;;;;;5029233;28;8833;-72
2023/02/23 21:52:56;;;;;;;;;41.75;37.50;;;;;;;;5030815;28;8797;-72
2023/02/23 21:55:21;;;;;;;;;40.50;39.00;;;;;;;;5013283;28;8818;-72
2023/02/23 21:57:47;;;;;;;;;48.25;39.25;;;;;;;;5008728;28;11597;-71
2023/02/23 22:00:15;;;;;;;;;44.75;39.75;;;;;;;;5008900;28;8826;-71
2023/02/23 22:02:44;;;;;;;;;49.75;42.00;;;;;;;;5010717;28;8913;-72
2023/02/23 22:05:10;;;;;;;;;43.50;41.25;;;;;;;;5010688;28;12307;-73
2023/02/23 22:07:35;;;;;;;;;43.00;39.25;;;;;;;;5009278;28;11576;-71
2023/02/23 22:10:01;;;;;;;;;48.75;41.00;;;;;;;;5009730;28;9714;-71
2023/02/23 22:12:26;;;;;;;;;42.25;39.25;;;;;;;;5030263;28;8808;-70
2023/02/23 22:14:52;;;;;;;;;35.50;31.75;;;;;;;;5029897;28;8865;-71
2023/02/23 22:17:18;;;;;;;;;42.75;37.00;;;;;;;;5027817;28;8804;-72
2023/02/23 22:19:43;;;;;;;;;47.75;40.00;;;;;;;;5024399;28;8988;-73
2023/02/23 22:22:08;;;;;;;;;40.75;35.25;;;;;;;;5026351;28;12538;-71
2023/02/23 22:24:34;;;;;;;;;43.00;38.25;;;;;;;;5019879;28;8839;-71
2023/02/23 22:27:02;;;;;;;;;39.25;37.25;;;;;;;;5018644;28;8808;-72
2023/02/23 22:29:27;;;;;;;;;42.00;39.75;;;;;;;;5029609;28;8844;-71
2023/02/23 22:31:52;;;;;;;;;47.00;39.50;;;;;;;;5029575;28;11599;-70
2023/02/23 22:34:18;;;;;;;;;45.50;40.25;;;;;;;;5029727;28;8824;-72
2023/02/23 22:36:43;;;;;;;;;44.75;37.00;;;;;;;;5029509;28;8961;-70
2023/02/23 22:39:09;;;;;;;;;38.75;35.50;;;;;;;;5029449;28;8812;-71
2023/02/23 22:41:41;;;;;;;;;41.75;38.50;;;;;;;;5018599;28;8821;-70
2023/02/23 22:44:07;;;;;;;;;41.25;37.25;;;;;;;;5029788;28;8850;-70
2023/02/23 22:46:33;;;;;;;;;53.50;40.50;;;;;;;;5029835;28;12306;-71
2023/02/23 22:48:58;;;;;;;;;40.75;37.50;;;;;;;;5029653;28;11659;-73
2023/02/23 22:51:23;;;;;;;;;35.75;34.75;;;;;;;;5029023;28;8873;-71
2023/02/23 22:53:48;;;;;;;;;42.50;35.50;;;;;;;;5029539;28;8804;-74
2023/02/23 22:56:14;;;;;;;;;47.00;35.75;;;;;;;;5028327;28;8799;-72
2023/02/23 22:58:40;;;;;;;;;36.50;32.50;;;;;;;;5028021;28;8887;-70
2023/02/23 23:01:08;;;;;;;;;29.25;28.75;;;;;;;;5026969;28;8845;-71
2023/02/23 23:03:35;;;;;;;;;36.25;32.00;;;;;;;;5028444;28;11544;-70
2023/02/23 23:06:02;;;;;;;;;34.25;31.25;;;;;;;;5028316;28;11665;-70
2023/02/23 23:08:35;;;;;;;;;30.50;29.00;;;;;;;;5028104;28;11792;-70
2023/02/23 23:11:02;;;;;;;;;35.25;33.00;;;;;;;;5027866;28;11598;-71
2023/02/23 23:13:30;;;;;;;;;32.75;29.50;;;;;;;;5028231;28;11569;-70
2023/02/23 23:15:55;;;;;;;;;38.50;34.00;;;;;;;;5029499;28;11537;-70
2023/02/23 23:18:23;;;;;;;;;31.50;30.00;;;;;;;;5029490;28;11554;-70
2023/02/23 23:20:48;;;;;;;;;38.75;35.25;;;;;;;;5028135;28;9098;-70
2023/02/23 23:23:14;;;;;;;;;37.00;32.50;;;;;;;;5029381;28;11627;-70
2023/02/23 23:25:41;;;;;;;;;35.75;32.50;;;;;;;;5028845;28;8814;-70
2023/02/23 23:28:06;;;;;;;;;40.50;32.50;;;;;;;;5028349;28;9624;-70
2023/02/23 23:30:34;;;;;;;;;39.75;34.75;;;;;;;;5029166;28;11550;-70
2023/02/23 23:33:00;;;;;;;;;39.00;37.00;;;;;;;;5028093;28;8948;-69
2023/02/23 23:35:25;;;;;;;;;38.25;33.50;;;;;;;;5027820;28;11649;-70
2023/02/23 23:37:51;;;;;;;;;41.25;36.75;;;;;;;;5029308;28;11636;-69
2023/02/23 23:40:17;;;;;;;;;28.75;27.50;;;;;;;;5027638;28;8889;-69
2023/02/23 23:42:45;;;;;;;;;26.25;24.00;;;;;;;;5027792;28;8820;-70
2023/02/23 23:45:15;;;;;;;;;32.25;28.75;;;;;;;;5029016;28;11527;-70
2023/02/23 23:47:40;;;;;;;;;33.75;31.50;;;;;;;;5029211;28;11525;-70
2023/02/23 23:50:09;;;;;;;;;31.50;27.00;;;;;;;;5029019;28;11594;-69
2023/02/23 23:52:35;;;;;;;;;36.25;32.00;;;;;;;;5029185;28;8815;-69
2023/02/23 23:55:02;;;;;;;;;32.75;28.75;;;;;;;;5027597;28;12319;-70
2023/02/23 23:57:29;;;;;;;;;38.00;28.75;;;;;;;;5028968;28;8950;-70
2023/02/23 23:59:55;;;;;;;;;32.00;29.00;;;;;;;;5027562;28;11656;-70
